Time;durP1;ratioP1;P1;durP2;ratioP2;P2;SDS_P1;SDS_P2;PMS_P1;PMS_P2;Temp;Humidity;BMP_temperature;BMP_pressure;BME280_temperature;BME280_humidity;BME280_pressure;Samples;Min_cycle;Max_cycle;Signal;HPM_P1;HPM_P2
2023/05/05 00:01:10;;;;;;;15.83;14.93;;;17.10;99.90;;;;;;4959779;28;21124;-81
2023/05/05 00:03:38;;;;;;;15.07;14.47;;;17.10;99.90;;;;;;4962119;28;20481;-81
2023/05/05 00:06:06;;;;;;;15.40;14.60;;;17.10;99.90;;;;;;4959568;28;20449;-82
2023/05/05 00:08:35;;;;;;;15.20;14.60;;;17.00;99.90;;;;;;4957327;28;20555;-82
2023/05/05 00:11:03;;;;;;;15.07;14.27;;;17.00;99.90;;;;;;4961366;28;20486;-81
2023/05/05 00:13:31;;;;;;;16.13;15.23;;;16.90;99.90;;;;;;4960531;28;20495;-82
2023/05/05 00:16:00;;;;;;;16.23;15.53;;;16.90;99.90;;;;;;4959915;28;20482;-82
2023/05/05 00:18:29;;;;;;;17.07;16.17;;;16.80;99.90;;;;;;4958967;28;20459;-82
2023/05/05 00:20:57;;;;;;;16.10;15.40;;;16.80;99.90;;;;;;4961930;28;20520;-82
2023/05/05 00:23:25;;;;;;;17.33;16.53;;;16.80;99.90;;;;;;4957286;28;20482;-81
2023/05/05 00:25:53;;;;;;;16.30;15.60;;;16.70;99.90;;;;;;4961384;28;20987;-81
2023/05/05 00:28:21;;;;;;;16.10;15.40;;;16.70;99.90;;;;;;4962849;28;20488;-82
2023/05/05 00:30:49;;;;;;;16.30;15.60;;;16.80;99.90;;;;;;4959648;28;20568;-82
2023/05/05 00:33:18;;;;;;;16.33;15.63;;;16.80;99.90;;;;;;4961676;28;20464;-81
2023/05/05 00:35:47;;;;;;;16.47;15.57;;;16.80;99.90;;;;;;4960204;28;20469;-81
2023/05/05 00:38:15;;;;;;;16.20;15.50;;;16.80;99.90;;;;;;4961983;28;20475;-81
2023/05/05 00:40:43;;;;;;;17.30;16.50;;;16.70;99.90;;;;;;4960342;28;20526;-82
2023/05/05 00:43:11;;;;;;;16.33;15.43;;;16.70;99.90;;;;;;4962569;28;20456;-81
2023/05/05 00:45:43;;;;;;;16.27;15.57;;;16.70;99.90;;;;;;4960644;28;20558;-81
2023/05/05 00:48:11;;;;;;;16.27;15.37;;;16.70;99.90;;;;;;4958046;28;20495;-82
2023/05/05 00:50:44;;;;;;;16.90;16.10;;;16.60;99.90;;;;;;4960911;28;20487;-81
2023/05/05 00:53:13;;;;;;;16.90;16.10;;;16.50;99.90;;;;;;4960004;28;20463;-81
2023/05/05 00:55:41;;;;;;;15.63;14.93;;;16.50;99.90;;;;;;4958103;28;20473;-81
2023/05/05 00:58:09;;;;;;;16.33;15.57;;;16.50;99.90;;;;;;4960531;28;20478;-80
2023/05/05 01:00:37;;;;;;;16.50;15.70;;;16.50;99.90;;;;;;4959828;28;20486;-81
2023/05/05 01:03:06;;;;;;;17.13;16.20;;;16.40;99.90;;;;;;4954906;28;20944;-80
2023/05/05 01:05:41;;;;;;;16.00;15.40;;;16.40;99.90;;;;;;4953690;28;20455;-79
2023/05/05 01:08:27;;;;;;;17.70;16.83;;;16.40;99.90;;;;;;4959726;28;21151;-81
2023/05/05 01:11:01;;;;;;;16.87;16.07;;;16.40;99.90;;;;;;4955682;28;20474;-80
2023/05/05 01:13:41;;;;;;;17.97;17.00;;;16.50;99.90;;;;;;4960384;28;20467;-79
2023/05/05 01:16:14;;;;;;;17.23;16.43;;;16.50;99.90;;;;;;4956344;28;20462;-80
2023/05/05 01:18:54;;;;;;;17.47;16.60;;;16.40;99.90;;;;;;4959342;28;20451;-80
2023/05/05 01:21:26;;;;;;;16.90;16.10;;;16.40;99.90;;;;;;4952880;28;20482;-79
2023/05/05 01:24:19;;;;;;;16.57;15.87;;;16.30;99.90;;;;;;4958805;28;20456;-80
2023/05/05 01:26:58;;;;;;;17.30;16.50;;;16.40;99.90;;;;;;4959959;28;20461;-80
2023/05/05 01:29:41;;;;;;;18.00;17.17;;;16.30;99.90;;;;;;4957111;28;21148;-82
2023/05/05 01:32:14;;;;;;;17.80;17.00;;;16.20;99.90;;;;;;4957931;28;20468;-82
2023/05/05 01:34:56;;;;;;;17.90;17.10;;;16.30;99.90;;;;;;4958899;28;20451;-82
2023/05/05 01:37:29;;;;;;;17.33;16.23;;;16.30;99.90;;;;;;4956631;28;20564;-80
2023/05/05 01:40:02;;;;;;;16.80;16.03;;;16.20;99.90;;;;;;4953336;28;20530;-81
2023/05/05 01:42:32;;;;;;;16.90;16.03;;;16.20;99.90;;;;;;4955261;28;20459;-81
2023/05/05 01:45:04;;;;;;;17.27;16.47;;;16.20;99.90;;;;;;4964375;28;20463;-81
2023/05/05 01:47:34;;;;;;;17.37;16.47;;;16.20;99.90;;;;;;4958739;28;20462;-81
2023/05/05 01:50:04;;;;;;;17.13;16.43;;;16.30;99.90;;;;;;4957677;28;20488;-82
2023/05/05 01:52:34;;;;;;;17.87;17.07;;;16.40;99.90;;;;;;4958324;28;20485;-81
2023/05/05 01:55:03;;;;;;;17.80;17.00;;;16.20;99.90;;;;;;4955987;28;20458;-82
2023/05/05 01:57:33;;;;;;;17.43;16.73;;;16.20;99.90;;;;;;4958543;28;20498;-81
2023/05/05 02:00:04;;;;;;;17.23;16.17;;;16.10;99.90;;;;;;4959023;28;20485;-81
2023/05/05 02:02:35;;;;;;;17.90;16.90;;;16.00;99.90;;;;;;4958338;28;20570;-81
2023/05/05 02:05:06;;;;;;;17.40;16.60;;;16.10;99.90;;;;;;4959050;28;20467;-81
2023/05/05 02:07:36;;;;;;;16.83;16.23;;;16.00;99.90;;;;;;4958303;28;20455;-79
2023/05/05 02:10:06;;;;;;;18.07;17.20;;;16.10;99.90;;;;;;4955400;28;20478;-80
2023/05/05 02:12:37;;;;;;;17.90;17.00;;;16.20;99.90;;;;;;4958766;28;20474;-80
2023/05/05 02:15:06;;;;;;;17.40;16.70;;;16.10;99.90;;;;;;4955427;28;20474;-78
2023/05/05 02:17:36;;;;;;;17.90;17.00;;;16.20;99.90;;;;;;4959081;28;20470;-79
2023/05/05 02:20:06;;;;;;;16.90;16.30;;;16.20;99.90;;;;;;4958961;28;21644;-81
2023/05/05 02:22:35;;;;;;;16.83;16.13;;;16.10;99.90;;;;;;4956536;28;20466;-81
2023/05/05 02:25:04;;;;;;;18.30;17.50;;;16.10;99.90;;;;;;4959141;28;20489;-81
2023/05/05 02:27:34;;;;;;;18.10;17.27;;;16.00;99.90;;;;;;4953937;28;20881;-79
2023/05/05 02:30:08;;;;;;;16.90;16.10;;;16.10;99.90;;;;;;4958443;28;20480;-80
2023/05/05 02:32:42;;;;;;;17.47;16.57;;;16.00;99.90;;;;;;4960843;28;20481;-80
2023/05/05 02:35:15;;;;;;;17.53;16.73;;;15.90;99.90;;;;;;4959201;28;20541;-81
2023/05/05 02:37:50;;;;;;;17.83;17.03;;;15.90;99.90;;;;;;4957679;28;20522;-81
2023/05/05 02:40:24;;;;;;;17.90;17.10;;;15.90;1.00;;;;;;4955845;28;20474;-81
2023/05/05 02:42:54;;;;;;;17.47;16.57;;;15.90;1.00;;;;;;4973627;28;20535;-80
2023/05/05 02:45:24;;;;;;;18.30;17.17;;;15.90;1.00;;;;;;4952903;28;20543;-80
2023/05/05 02:47:54;;;;;;;17.63;16.93;;;15.90;1.00;;;;;;4958041;28;20522;-82
2023/05/05 02:50:22;;;;;;;17.40;16.70;;;15.80;1.00;;;;;;4955648;28;20532;-79
2023/05/05 02:52:50;;;;;;;18.43;17.60;;;15.80;1.00;;;;;;4955623;28;20462;-79
2023/05/05 02:55:19;;;;;;;17.97;17.07;;;15.80;1.00;;;;;;4953615;28;20469;-77
2023/05/05 02:57:51;;;;;;;18.20;17.40;;;15.80;1.00;;;;;;4954663;28;20483;-77
2023/05/05 03:00:23;;;;;;;17.20;16.40;;;15.90;1.00;;;;;;4951638;28;20529;-77
2023/05/05 03:03:02;;;;;;;18.30;17.50;;;15.90;1.00;;;;;;4952728;28;20563;-77
2023/05/05 03:05:38;;;;;;;17.93;16.93;;;15.80;1.00;;;;;;4955896;28;20995;-77
2023/05/05 03:08:13;;;;;;;18.00;16.93;;;15.80;1.00;;;;;;4953150;28;20485;-78
2023/05/05 03:10:47;;;;;;;17.93;16.73;;;15.80;1.00;;;;;;4953879;28;20543;-77
2023/05/05 03:13:18;;;;;;;18.20;17.30;;;15.80;1.00;;;;;;4954504;28;20488;-80
2023/05/05 03:15:49;;;;;;;18.10;17.30;;;15.80;1.00;;;;;;4956281;28;20994;-81
2023/05/05 03:18:22;;;;;;;18.70;17.90;;;15.80;1.00;;;;;;4954710;28;20513;-81
2023/05/05 03:20:51;;;;;;;17.77;16.67;;;15.80;1.00;;;;;;4955264;28;21148;-81
2023/05/05 03:23:21;;;;;;;19.13;17.50;;;15.90;1.00;;;;;;4958848;28;20485;-81
2023/05/05 03:25:50;;;;;;;17.80;16.97;;;15.90;1.00;;;;;;4964313;28;20461;-81
2023/05/05 03:28:18;;;;;;;17.27;16.57;;;15.80;1.00;;;;;;4958979;28;20449;-80
2023/05/05 03:30:46;;;;;;;17.37;16.63;;;15.80;1.00;;;;;;4961612;28;20504;-81
2023/05/05 03:33:16;;;;;;;18.00;17.20;;;15.80;1.00;;;;;;4960323;28;20474;-81
2023/05/05 03:35:45;;;;;;;17.47;16.80;;;15.80;1.00;;;;;;4961111;28;20996;-82
2023/05/05 03:38:13;;;;;;;18.03;17.33;;;15.80;1.00;;;;;;4960731;28;20482;-80
2023/05/05 03:40:42;;;;;;;18.10;17.40;;;15.80;1.00;;;;;;4956934;28;20483;-80
2023/05/05 03:43:12;;;;;;;17.30;16.60;;;15.80;1.00;;;;;;4960779;28;20974;-81
2023/05/05 03:45:40;;;;;;;17.87;17.17;;;15.90;1.00;;;;;;4957630;28;20468;-80
2023/05/05 03:48:08;;;;;;;18.17;17.27;;;15.80;1.00;;;;;;4956566;28;20456;-80
2023/05/05 03:50:36;;;;;;;17.10;16.50;;;15.80;1.00;;;;;;4956538;28;21134;-78
2023/05/05 03:53:06;;;;;;;17.37;16.67;;;16.00;1.00;;;;;;4956724;28;21027;-79
2023/05/05 03:55:34;;;;;;;16.80;16.10;;;16.00;1.00;;;;;;4958120;28;20469;-80
2023/05/05 03:58:02;;;;;;;17.57;16.87;;;16.00;1.00;;;;;;4959275;28;20496;-81
2023/05/05 04:00:30;;;;;;;17.23;16.53;;;16.00;1.00;;;;;;4952425;28;20484;-80
2023/05/05 04:02:59;;;;;;;17.13;16.53;;;16.00;1.00;;;;;;4955388;28;21326;-80
2023/05/05 04:05:27;;;;;;;18.43;17.63;;;16.10;1.00;;;;;;4960485;28;21009;-81
2023/05/05 04:07:56;;;;;;;17.40;16.70;;;16.10;1.00;;;;;;4959531;28;20445;-80
2023/05/05 04:10:27;;;;;;;18.70;17.70;;;16.10;1.00;;;;;;4964426;28;20495;-81
2023/05/05 04:12:55;;;;;;;17.93;17.23;;;16.10;1.00;;;;;;4960532;28;20475;-81
2023/05/05 04:15:23;;;;;;;18.10;17.40;;;16.10;1.00;;;;;;4959574;28;20461;-80
2023/05/05 04:17:51;;;;;;;18.80;17.73;;;16.10;1.00;;;;;;4953035;28;20450;-81
2023/05/05 04:20:20;;;;;;;17.80;17.10;;;16.10;1.00;;;;;;4956179;28;20546;-80
2023/05/05 04:22:48;;;;;;;18.43;17.60;;;16.10;1.00;;;;;;4958659;28;20984;-80
2023/05/05 04:25:19;;;;;;;18.17;17.40;;;16.10;1.00;;;;;;4956567;28;20579;-80
2023/05/05 04:27:49;;;;;;;19.20;17.87;;;16.20;1.00;;;;;;4960772;28;20456;-80
2023/05/05 04:30:17;;;;;;;19.37;18.43;;;16.20;1.00;;;;;;4960436;28;20480;-80
2023/05/05 04:32:45;;;;;;;19.57;18.87;;;16.20;1.00;;;;;;4953056;28;20465;-81
2023/05/05 04:35:13;;;;;;;18.80;18.10;;;16.20;1.00;;;;;;4952358;28;20645;-80
2023/05/05 04:37:42;;;;;;;19.27;18.33;;;16.20;1.00;;;;;;4958079;28;20477;-81
2023/05/05 04:40:10;;;;;;;18.63;17.80;;;16.20;1.00;;;;;;4961882;28;20502;-80
2023/05/05 04:42:39;;;;;;;18.87;18.17;;;16.20;1.00;;;;;;4955879;28;20457;-81
2023/05/05 04:45:09;;;;;;;18.40;17.60;;;16.30;1.00;;;;;;4960422;28;21241;-81
2023/05/05 04:47:37;;;;;;;18.83;17.97;;;16.30;1.00;;;;;;4958758;28;20484;-81
2023/05/05 04:50:06;;;;;;;18.90;18.10;;;16.30;1.00;;;;;;4955442;28;21803;-80
2023/05/05 04:52:35;;;;;;;18.63;17.73;;;16.40;1.00;;;;;;4961914;28;20805;-81
2023/05/05 04:55:04;;;;;;;18.87;18.07;;;16.30;1.00;;;;;;4960744;28;20527;-81
2023/05/05 04:57:32;;;;;;;20.03;19.10;;;16.30;1.00;;;;;;4961638;28;20452;-81
2023/05/05 05:00:03;;;;;;;19.87;19.03;;;16.30;1.00;;;;;;4953749;28;20553;-80
2023/05/05 05:02:32;;;;;;;20.03;18.93;;;16.20;1.00;;;;;;4957208;28;20480;-82
2023/05/05 05:05:01;;;;;;;19.55;18.55;;;16.30;1.00;;;;;;4949247;28;20674;-80
2023/05/05 05:07:29;;;;;;;19.77;18.87;;;16.20;1.00;;;;;;4958915;28;20203;-82
2023/05/05 05:09:57;;;;;;;19.30;18.30;;;16.20;1.00;;;;;;4964402;28;20449;-82
2023/05/05 05:12:25;;;;;;;20.40;19.30;;;16.20;1.00;;;;;;4958104;28;20763;-81
2023/05/05 05:14:54;;;;;;;20.80;19.60;;;16.30;1.00;;;;;;4961724;28;20966;-82
2023/05/05 05:17:23;;;;;;;18.83;18.03;;;16.40;1.00;;;;;;4954005;28;20461;-82
2023/05/05 05:19:54;;;;;;;18.90;18.00;;;16.30;1.00;;;;;;4957282;28;20536;-81
2023/05/05 05:22:22;;;;;;;21.97;20.77;;;16.30;33.10;;;;;;4961680;28;20462;-82
2023/05/05 05:24:51;;;;;;;19.67;18.40;;;16.30;1.00;;;;;;4958009;28;20470;-82
2023/05/05 05:27:19;;;;;;;19.33;18.53;;;16.30;1.00;;;;;;4960299;28;20958;-83
2023/05/05 05:29:47;;;;;;;19.57;18.67;;;16.40;1.00;;;;;;4954833;28;20556;-82
2023/05/05 05:32:15;;;;;;;20.97;19.40;;;16.40;1.00;;;;;;4960968;28;20474;-82
2023/05/05 05:34:43;;;;;;;19.20;18.30;;;16.50;1.00;;;;;;4955156;28;20542;-82
2023/05/05 05:37:13;;;;;;;19.90;19.10;;;16.60;1.00;;;;;;4960073;28;21446;-83
2023/05/05 05:39:41;;;;;;;19.00;18.20;;;16.60;1.00;;;;;;4955629;28;20222;-84
2023/05/05 05:42:10;;;;;;;19.07;18.27;;;16.70;1.00;;;;;;4955425;28;20542;-83
2023/05/05 05:44:38;;;;;;;20.37;19.30;;;16.80;1.00;;;;;;4957900;28;20460;-83
2023/05/05 05:47:07;;;;;;;19.57;18.57;;;16.80;1.00;;;;;;4956726;28;20557;-83
2023/05/05 05:49:35;;;;;;;19.00;18.10;;;16.90;1.00;;;;;;4964599;28;20462;-81
2023/05/05 05:52:03;;;;;;;19.33;18.43;;;16.90;1.00;;;;;;4962722;28;20480;-81
2023/05/05 05:54:34;;;;;;;19.00;17.80;;;16.90;1.00;;;;;;4965880;28;20518;-81
2023/05/05 05:57:02;;;;;;;18.90;18.00;;;17.00;1.00;;;;;;4960419;28;20457;-81
2023/05/05 05:59:30;;;;;;;18.87;17.80;;;17.00;1.00;;;;;;4963717;28;20481;-82
2023/05/05 06:01:59;;;;;;;19.20;18.10;;;17.10;1.00;;;;;;4963839;28;20586;-81
2023/05/05 06:04:27;;;;;;;18.67;17.83;;;17.10;1.00;;;;;;4963260;28;20458;-81
2023/05/05 06:06:56;;;;;;;18.90;18.10;;;17.20;1.00;;;;;;4962186;28;20462;-82
2023/05/05 06:09:24;;;;;;;19.27;18.37;;;17.30;1.00;;;;;;4963855;28;20457;-82
2023/05/05 06:11:54;;;;;;;19.63;18.63;;;17.30;1.00;;;;;;4960929;28;20485;-82
2023/05/05 06:14:22;;;;;;;19.10;18.30;;;17.40;1.00;;;;;;4961105;28;20721;-82
2023/05/05 06:16:51;;;;;;;20.87;19.60;;;17.40;1.00;;;;;;4958971;28;20458;-81
2023/05/05 06:19:20;;;;;;;19.50;18.70;;;17.40;1.00;;;;;;4958913;28;20482;-83
2023/05/05 06:21:48;;;;;;;21.13;20.13;;;17.40;1.00;;;;;;4962764;28;20474;-81
2023/05/05 06:24:16;;;;;;;20.53;19.50;;;17.50;1.00;;;;;;4951626;28;20460;-83
2023/05/05 06:26:44;;;;;;;19.53;18.60;;;17.50;1.00;;;;;;4950661;28;20466;-81
2023/05/05 06:29:14;;;;;;;19.57;18.63;;;17.50;1.00;;;;;;4960512;28;20459;-82
2023/05/05 06:31:42;;;;;;;19.17;18.17;;;17.50;1.00;;;;;;4959592;28;20481;-81
2023/05/05 06:34:11;;;;;;;18.90;18.00;;;17.50;1.00;;;;;;4959916;28;21200;-81
2023/05/05 06:36:39;;;;;;;19.40;18.50;;;17.60;1.00;;;;;;4962737;28;20478;-82
2023/05/05 06:39:07;;;;;;;18.80;18.10;;;17.60;1.00;;;;;;4959935;28;20471;-81
2023/05/05 06:41:35;;;;;;;18.50;17.90;;;17.60;1.00;;;;;;4956170;28;20483;-82
2023/05/05 06:44:04;;;;;;;18.70;18.00;;;17.70;1.00;;;;;;4959754;28;20465;-84
2023/05/05 06:46:34;;;;;;;18.40;17.80;;;17.70;1.00;;;;;;4960979;28;20466;-81
2023/05/05 06:49:02;;;;;;;18.50;17.80;;;17.70;1.00;;;;;;4961803;28;20554;-82
2023/05/05 06:51:31;;;;;;;18.33;17.63;;;17.70;1.00;;;;;;4963816;28;20488;-81
2023/05/05 06:53:59;;;;;;;18.50;17.87;;;17.80;1.00;;;;;;4964140;28;20513;-81
2023/05/05 06:56:27;;;;;;;19.23;18.43;;;17.80;1.00;;;;;;4964385;28;20485;-83
2023/05/05 06:58:56;;;;;;;18.07;17.47;;;17.80;1.00;;;;;;4965702;28;20792;-82
2023/05/05 07:01:24;;;;;;;18.20;17.60;;;17.80;1.00;;;;;;4962354;28;20569;-83
2023/05/05 07:03:53;;;;;;;18.17;17.57;;;17.90;1.00;;;;;;4965723;28;20458;-82
2023/05/05 07:06:22;;;;;;;18.10;17.57;;;17.90;1.00;;;;;;4964940;28;20457;-82
2023/05/05 07:08:50;;;;;;;19.60;18.57;;;17.90;1.00;;;;;;4963747;28;20485;-82
2023/05/05 07:11:18;;;;;;;18.90;18.30;;;18.00;1.00;;;;;;4967453;28;20525;-81
2023/05/05 07:13:48;;;;;;;18.70;18.10;;;18.00;1.00;;;;;;4967140;28;20543;-81
2023/05/05 07:16:16;;;;;;;18.40;17.70;;;18.00;1.00;;;;;;4969322;28;20457;-81
2023/05/05 07:18:44;;;;;;;18.60;18.07;;;18.00;1.00;;;;;;4966134;28;20465;-82
2023/05/05 07:21:14;;;;;;;18.77;18.17;;;18.00;1.00;;;;;;4967648;28;21016;-82
2023/05/05 07:23:45;;;;;;;19.40;18.70;;;18.00;1.00;;;;;;4964660;28;20502;-83
2023/05/05 07:26:13;;;;;;;20.17;19.03;;;18.00;1.00;;;;;;4963509;28;20890;-81
2023/05/05 07:28:42;;;;;;;19.13;18.33;;;18.00;1.00;;;;;;4963909;28;20533;-82
2023/05/05 07:31:11;;;;;;;19.43;18.50;;;17.90;1.00;;;;;;4962694;28;20482;-83
2023/05/05 07:33:39;;;;;;;18.80;18.20;;;18.00;1.00;;;;;;4962604;28;20463;-82
2023/05/05 07:36:08;;;;;;;19.33;18.53;;;17.90;1.00;;;;;;4963992;28;20466;-81
2023/05/05 07:38:37;;;;;;;19.77;18.77;;;17.90;1.00;;;;;;4966269;28;20528;-83
2023/05/05 07:41:06;;;;;;;18.90;18.10;;;17.90;1.00;;;;;;4967803;28;20515;-83
2023/05/05 07:43:49;;;;;;;20.03;19.13;;;17.90;99.90;;;;;;5140182;27;20734;-78
2023/05/05 07:46:18;;;;;;;19.70;19.00;;;17.90;1.00;;;;;;5134444;27;20965;-81
2023/05/05 07:48:46;;;;;;;19.20;18.50;;;17.80;1.00;;;;;;5135475;27;20443;-82
2023/05/05 07:51:15;;;;;;;19.93;18.93;;;17.70;99.90;;;;;;5136159;27;20472;-82
2023/05/05 07:53:43;;;;;;;19.53;18.73;;;17.70;57.80;;;;;;5138124;27;20458;-82
2023/05/05 07:56:11;;;;;;;19.50;18.70;;;17.70;1.00;;;;;;5140814;27;20454;-81
2023/05/05 07:58:39;;;;;;;19.63;18.83;;;17.70;99.90;;;;;;5141369;27;20481;-81
2023/05/05 08:01:11;;;;;;;19.47;18.80;;;17.70;99.90;;;;;;5138385;27;20482;-81
2023/05/05 08:03:40;;;;;;;20.70;19.90;;;17.70;99.90;;;;;;5140040;27;20762;-83
2023/05/05 08:06:09;;;;;;;20.50;19.70;;;17.70;99.90;;;;;;5145453;27;20447;-82
2023/05/05 08:08:38;;;;;;;21.50;20.30;;;17.70;82.00;;;;;;5143641;27;20439;-81
2023/05/05 08:11:07;;;;;;;20.57;19.80;;;17.70;1.00;;;;;;5150469;27;20475;-83
2023/05/05 08:13:35;;;;;;;21.10;20.20;;;17.70;2.50;;;;;;5151713;27;20452;-82
2023/05/05 08:16:04;;;;;;;21.80;20.80;;;17.70;99.90;;;;;;5150022;27;20437;-82
2023/05/05 08:18:36;;;;;;;21.10;20.20;;;17.70;99.90;;;;;;5151705;27;20487;-83
2023/05/05 08:21:05;;;;;;;21.03;20.33;;;17.80;99.90;;;;;;5141145;27;20480;-81
2023/05/05 08:23:34;;;;;;;20.57;19.60;;;17.80;99.90;;;;;;5145531;27;20471;-82
2023/05/05 08:26:03;;;;;;;20.60;19.80;;;17.80;1.00;;;;;;5142178;27;20445;-83
2023/05/05 08:28:31;;;;;;;20.43;19.67;;;17.80;1.00;;;;;;5135583;27;20457;-79
2023/05/05 08:31:00;;;;;;;20.33;19.63;;;17.80;99.90;;;;;;5145151;27;20471;-80
2023/05/05 08:33:28;;;;;;;20.30;19.40;;;17.90;99.90;;;;;;5143404;27;20439;-82
2023/05/05 08:35:58;;;;;;;21.07;19.90;;;17.80;1.00;;;;;;5127911;27;20449;-83
2023/05/05 08:38:26;;;;;;;20.73;19.93;;;17.90;99.90;;;;;;5134172;27;20462;-83
2023/05/05 08:40:54;;;;;;;19.93;19.23;;;17.90;99.90;;;;;;5132937;27;20474;-83
2023/05/05 08:43:23;;;;;;;19.60;18.90;;;17.90;1.00;;;;;;5139184;27;20481;-83
2023/05/05 08:45:51;;;;;;;20.23;19.43;;;17.90;1.00;;;;;;5132993;27;20877;-80
2023/05/05 08:48:20;;;;;;;20.20;19.40;;;17.90;99.90;;;;;;5112291;27;20518;-84
2023/05/05 08:50:55;;;;;;;21.63;20.83;;;17.90;99.90;;;;;;5116179;27;20486;-82
2023/05/05 08:53:41;;;;;;;20.50;19.70;;;18.00;99.90;;;;;;5127359;27;20473;-83
2023/05/05 08:56:11;;;;;;;20.37;19.47;;;18.00;1.00;;;;;;5123831;27;20447;-83
2023/05/05 08:58:41;;;;;;;20.13;19.43;;;18.10;22.80;;;;;;5120087;27;20520;-81
2023/05/05 09:01:10;;;;;;;21.17;20.20;;;18.10;24.70;;;;;;5118853;27;20482;-83
2023/05/05 09:03:39;;;;;;;21.13;20.30;;;18.20;99.90;;;;;;5120700;27;20529;-82
2023/05/05 09:06:08;;;;;;;20.23;19.43;;;18.30;60.20;;;;;;5124101;27;20985;-83
2023/05/05 09:08:38;;;;;;;22.30;21.40;;;18.20;1.00;;;;;;5118804;27;21024;-81
2023/05/05 09:11:07;;;;;;;22.97;21.73;;;18.30;99.90;;;;;;5120351;27;21071;-84
2023/05/05 09:13:35;;;;;;;21.93;21.00;;;18.30;99.90;;;;;;5121400;27;20819;-82
2023/05/05 09:16:04;;;;;;;21.30;20.40;;;18.30;99.90;;;;;;5121325;27;20454;-82
2023/05/05 09:18:32;;;;;;;21.43;20.53;;;18.20;1.00;;;;;;5111802;27;20454;-80
2023/05/05 09:21:00;;;;;;;22.50;21.30;;;18.30;50.60;;;;;;5122579;27;20470;-83
2023/05/05 09:23:29;;;;;;;23.37;21.87;;;18.30;99.90;;;;;;5121460;27;20558;-82
2023/05/05 09:26:07;;;;;;;21.10;20.10;;;18.30;53.20;;;;;;5126679;27;20432;-81
2023/05/05 09:28:36;;;;;;;20.67;19.77;;;18.40;99.90;;;;;;5123887;27;20488;-82
2023/05/05 09:31:15;;;;;;;20.53;19.73;;;18.60;99.90;;;;;;5123226;27;20514;-82
2023/05/05 09:33:44;;;;;;;20.63;19.67;;;18.70;1.00;;;;;;5122963;27;20458;-82
2023/05/05 09:36:12;;;;;;;20.63;19.73;;;18.90;39.80;;;;;;5109464;27;20480;-81
2023/05/05 09:38:40;;;;;;;20.70;19.90;;;18.90;99.90;;;;;;5121152;27;20453;-81
2023/05/05 09:41:09;;;;;;;20.53;19.73;;;19.00;99.90;;;;;;5121860;27;20468;-81
2023/05/05 09:43:51;;;;;;;20.27;19.47;;;19.20;99.00;;;;;;5125824;27;21064;-81
2023/05/05 09:46:19;;;;;;;21.00;20.10;;;19.20;99.90;;;;;;5124048;27;20572;-82
2023/05/05 09:48:48;;;;;;;20.47;19.40;;;19.30;99.90;;;;;;5118970;27;20452;-80
2023/05/05 09:51:28;;;;;;;19.43;18.63;;;19.40;60.20;;;;;;5121032;27;20507;-82
2023/05/05 09:53:57;;;;;;;19.63;18.80;;;19.40;99.90;;;;;;5121647;27;20455;-82
2023/05/05 09:56:39;;;;;;;19.13;18.53;;;19.50;60.90;;;;;;5123479;27;21009;-82
2023/05/05 09:59:10;;;;;;;19.37;18.63;;;19.50;1.00;;;;;;5118926;27;20436;-83
2023/05/05 10:01:42;;;;;;;19.37;18.60;;;19.50;1.00;;;;;;5120465;27;20528;-82
2023/05/05 10:04:23;;;;;;;19.97;18.97;;;19.50;1.00;;;;;;5120145;27;20476;-82
2023/05/05 10:06:51;;;;;;;18.73;18.13;;;19.40;1.00;;;;;;5116696;27;20447;-81
2023/05/05 10:09:21;;;;;;;19.13;18.33;;;19.50;1.00;;;;;;5120184;27;21153;-82
2023/05/05 10:11:51;;;;;;;18.27;17.70;;;19.50;1.00;;;;;;5127366;27;20712;-83
2023/05/05 10:14:20;;;;;;;18.37;17.57;;;19.40;1.00;;;;;;5108148;27;20523;-83
2023/05/05 10:16:49;;;;;;;18.40;17.80;;;19.40;1.00;;;;;;5121780;27;20459;-83
2023/05/05 10:19:19;;;;;;;19.53;18.83;;;19.30;1.00;;;;;;5123723;27;20441;-82
2023/05/05 10:21:50;;;;;;;18.57;17.93;;;19.30;1.00;;;;;;5101207;27;20472;-82
2023/05/05 10:24:29;;;;;;;18.73;18.13;;;19.30;1.00;;;;;;5112869;27;20610;-81
2023/05/05 10:27:02;;;;;;;19.20;18.37;;;19.30;1.00;;;;;;5117978;27;20444;-83
2023/05/05 10:29:37;;;;;;;19.00;18.30;;;19.30;1.00;;;;;;5120905;27;20849;-82
2023/05/05 10:32:12;;;;;;;19.37;18.30;;;19.30;1.00;;;;;;5122533;27;20460;-82
2023/05/05 10:35:02;;;;;;;18.97;18.27;;;19.30;1.00;;;;;;5119373;27;21064;-83
2023/05/05 10:37:31;;;;;;;19.07;18.27;;;19.20;1.00;;;;;;5122250;27;20542;-82
2023/05/05 10:40:01;;;;;;;20.23;19.23;;;19.20;1.00;;;;;;5118563;27;20517;-83
2023/05/05 10:42:30;;;;;;;19.50;18.80;;;19.20;1.00;;;;;;5118721;27;20476;-83
2023/05/05 10:44:59;;;;;;;19.37;18.57;;;19.20;1.00;;;;;;5121666;27;20477;-82
2023/05/05 10:47:28;;;;;;;19.07;18.40;;;19.20;1.00;;;;;;5119147;27;20447;-82
2023/05/05 10:50:04;;;;;;;19.43;18.73;;;19.20;1.00;;;;;;5112501;27;20459;-81
2023/05/05 10:52:36;;;;;;;19.33;18.63;;;19.20;1.00;;;;;;5117200;27;20905;-82
2023/05/05 10:55:15;;;;;;;19.47;18.77;;;19.20;1.00;;;;;;5119212;27;21069;-83
2023/05/05 10:57:45;;;;;;;20.07;19.27;;;19.20;1.00;;;;;;5120159;27;20451;-82
2023/05/05 11:00:47;;;;;;;19.50;18.80;;;19.20;1.00;;;;;;5116422;27;20484;-83
2023/05/05 11:03:23;;;;;;;20.80;19.90;;;19.20;1.00;;;;;;5096197;27;20704;-82
2023/05/05 11:06:11;;;;;;;20.00;19.17;;;19.20;99.90;;;;;;5118942;27;20992;-82
2023/05/05 11:08:41;;;;;;;20.20;19.30;;;19.30;1.00;;;;;;5118479;27;20444;-82
2023/05/05 11:11:10;;;;;;;19.83;18.53;;;19.40;99.90;;;;;;5118421;27;20465;-82
2023/05/05 11:13:40;;;;;;;19.90;19.10;;;19.50;99.90;;;;;;5121965;27;21071;-82
2023/05/05 11:16:44;;;;;;;21.23;20.00;;;19.60;99.90;;;;;;5117080;27;20451;-82
2023/05/05 11:19:46;;;;;;;20.20;19.50;;;19.70;99.90;;;;;;5120228;27;20463;-81
2023/05/05 11:22:16;;;;;;;20.73;19.83;;;19.80;99.90;;;;;;5115798;27;20483;-82
2023/05/05 11:24:45;;;;;;;20.57;19.67;;;19.80;15.50;;;;;;5114518;27;20977;-83
2023/05/05 11:27:13;;;;;;;20.40;19.40;;;19.90;27.40;;;;;;5118625;27;20458;-85
2023/05/05 11:30:09;;;;;;;21.03;19.77;;;19.90;1.00;;;;;;5110422;27;20463;-86
2023/05/05 11:32:37;;;;;;;20.40;19.37;;;20.00;99.90;;;;;;5113895;27;20453;-85
2023/05/05 11:35:06;;;;;;;19.70;18.90;;;20.20;79.50;;;;;;5113975;28;20835;-85
2023/05/05 11:37:37;;;;;;;20.77;19.37;;;20.20;6.00;;;;;;5117537;27;20475;-85
2023/05/05 11:40:20;;;;;;;18.77;18.17;;;20.30;1.00;;;;;;5113140;27;20455;-84
2023/05/05 11:42:49;;;;;;;19.60;18.87;;;20.40;6.40;;;;;;5118999;28;20452;-83
2023/05/05 11:45:23;;;;;;;19.70;19.00;;;20.50;1.00;;;;;;5106295;28;21247;-83
2023/05/05 11:47:51;;;;;;;19.87;19.00;;;20.40;1.00;;;;;;5114634;27;20508;-83
2023/05/05 11:50:21;;;;;;;19.30;18.70;;;20.40;1.00;;;;;;5091952;28;20511;-83
2023/05/05 11:52:50;;;;;;;20.30;19.33;;;20.40;1.00;;;;;;5123788;28;20456;-81
2023/05/05 11:55:22;;;;;;;19.50;18.80;;;20.50;1.00;;;;;;5121838;27;20459;-82
2023/05/05 11:57:51;;;;;;;19.33;18.57;;;20.50;1.00;;;;;;5117977;28;20444;-83
2023/05/05 12:00:30;;;;;;;19.50;18.67;;;20.50;1.00;;;;;;5123997;27;20488;-82
2023/05/05 12:02:59;;;;;;;18.40;17.80;;;20.50;1.00;;;;;;5118856;28;21026;-80
2023/05/05 12:05:27;;;;;;;19.03;18.43;;;20.50;1.00;;;;;;5118493;27;20487;-82
2023/05/05 12:07:59;;;;;;;18.87;18.17;;;20.50;1.00;;;;;;5120309;28;20448;-80
2023/05/05 12:10:28;;;;;;;18.50;17.90;;;20.50;1.00;;;;;;5121199;28;20838;-83
2023/05/05 12:12:56;;;;;;;18.87;18.10;;;20.60;1.00;;;;;;5120630;28;20473;-80
2023/05/05 12:15:30;;;;;;;18.77;18.07;;;20.50;1.00;;;;;;5119976;28;20586;-83
2023/05/05 12:17:59;;;;;;;18.10;17.50;;;20.50;1.00;;;;;;5113118;28;20448;-84
2023/05/05 12:20:31;;;;;;;18.33;17.80;;;20.40;1.00;;;;;;5116656;28;20468;-82
2023/05/05 12:23:01;;;;;;;18.37;17.77;;;20.40;99.90;;;;;;5118507;28;20457;-82
2023/05/05 12:25:36;;;;;;;18.27;17.67;;;20.30;99.90;;;;;;5120062;27;20471;-83
2023/05/05 12:28:06;;;;;;;18.40;17.80;;;20.30;99.90;;;;;;5121909;27;20455;-84
2023/05/05 12:30:36;;;;;;;18.50;17.80;;;20.30;99.90;;;;;;5117239;27;20460;-83
2023/05/05 12:33:05;;;;;;;18.27;17.67;;;20.30;99.90;;;;;;5121350;27;20448;-81
2023/05/05 12:35:34;;;;;;;18.87;18.17;;;20.40;99.90;;;;;;5123577;27;20976;-83
2023/05/05 12:38:03;;;;;;;18.40;17.70;;;20.30;99.90;;;;;;5126782;27;20982;-83
2023/05/05 12:40:45;;;;;;;18.47;17.83;;;20.40;99.90;;;;;;5117864;27;20464;-83
2023/05/05 12:43:28;;;;;;;18.57;17.90;;;20.50;99.90;;;;;;5121303;27;20500;-82
2023/05/05 12:46:06;;;;;;;19.23;18.33;;;20.50;99.90;;;;;;5119847;27;20471;-81
2023/05/05 12:48:36;;;;;;;18.50;17.63;;;20.60;99.90;;;;;;5104484;27;20452;-83
2023/05/05 12:51:19;;;;;;;18.80;18.20;;;20.60;99.90;;;;;;5122150;27;20914;-82